createdAt,value
2023-01-02T00:04:57.411Z,100900.25
2023-01-02T00:10:01.907Z,100898.78
2023-01-02T00:15:05.220Z,100899.22
2023-01-02T00:20:08.551Z,100892.47
2023-01-02T00:25:13.089Z,100892.56
2023-01-02T00:30:18.864Z,100907.13
2023-01-02T00:35:21.707Z,100916.13
2023-01-02T00:40:26.215Z,100916.47
2023-01-02T00:45:29.063Z,100914.53
2023-01-02T00:50:31.902Z,100920.06
2023-01-02T00:55:36.411Z,100925.41
2023-01-02T01:00:39.317Z,100929.41
2023-01-02T01:05:42.194Z,100951.34
2023-01-02T01:10:46.692Z,100958.47
2023-01-02T01:15:49.600Z,100969.97
2023-01-02T01:20:52.505Z,100975.41
2023-01-02T01:25:57.060Z,100990.03
2023-01-02T01:31:02.639Z,100988.75
2023-01-02T01:36:06.513Z,101001.69
2023-01-02T01:41:13.145Z,101014.34
2023-01-02T01:46:20.387Z,101013.56
2023-01-02T01:51:23.383Z,101013.34
2023-01-02T01:56:28.450Z,101016.25
2023-01-02T02:01:31.949Z,101019.94
2023-01-02T02:06:34.984Z,101026.47
2023-01-02T02:11:40.536Z,101029.38
2023-01-02T02:16:49.312Z,101018.44
2023-01-02T02:22:08.188Z,101014.78
2023-01-02T02:27:21.650Z,101012.41
2023-01-02T02:32:33.301Z,101026.47
2023-01-02T02:37:41.371Z,101017.97
2023-01-02T02:42:48.991Z,101013.97
2023-01-02T02:47:58.375Z,101021.44
2023-01-02T02:53:03.127Z,101031.94
2023-01-02T02:58:06.907Z,101024.22
2023-01-02T03:03:21.063Z,101029.25
2023-01-02T03:08:33.038Z,101031.41
2023-01-02T03:13:42.494Z,101029.28
2023-01-02T03:18:53.775Z,101046.63
2023-01-02T03:24:00.743Z,101038.94
2023-01-02T03:29:06.705Z,101039.00
2023-01-02T03:34:13.788Z,101052.31
2023-01-02T03:39:17.892Z,101050.66
2023-01-02T03:44:23.370Z,101050.13
2023-01-02T03:49:30.662Z,101048.03
2023-01-02T03:54:33.720Z,101032.63
2023-01-02T03:59:40.233Z,101030.13
2023-01-02T04:04:51.113Z,101025.56
2023-01-02T04:09:55.080Z,101028.22
2023-01-02T04:15:01.057Z,101034.50
2023-01-02T04:20:07.624Z,101045.63
2023-01-02T04:25:11.737Z,101053.81
2023-01-02T04:30:14.575Z,101043.63
2023-01-02T04:35:20.377Z,101068.81
2023-01-02T04:40:24.049Z,101083.69
2023-01-02T04:45:26.895Z,101073.19
2023-01-02T04:50:31.422Z,101071.41
2023-01-02T04:55:34.254Z,101061.66
2023-01-02T05:00:37.087Z,101067.28
2023-01-02T05:05:41.569Z,101065.72
2023-01-02T05:10:45.168Z,101071.94
2023-01-02T05:15:54.647Z,101086.59
2023-01-02T05:21:03.020Z,101072.63
2023-01-02T05:26:10.775Z,101068.97
2023-01-02T05:31:13.719Z,101068.97
2023-01-02T05:36:18.335Z,101071.00
2023-01-02T05:41:21.567Z,101066.88
2023-01-02T05:46:24.552Z,101055.78
2023-01-02T05:51:29.120Z,101041.03
2023-01-02T05:56:32.012Z,101026.63
2023-01-02T06:01:35.229Z,101030.31
2023-01-02T06:06:40.208Z,101018.94
2023-01-02T06:11:43.084Z,101003.41
2023-01-02T06:16:45.991Z,101012.22
2023-01-02T06:21:50.627Z,101021.75
2023-01-02T06:26:53.484Z,101027.84
2023-01-02T06:31:56.447Z,101048.63
2023-01-02T06:37:04.541Z,101030.44
2023-01-02T06:42:12.806Z,101026.19
2023-01-02T06:47:15.686Z,101021.91
2023-01-02T06:52:20.257Z,101023.69
2023-01-02T06:57:23.165Z,101025.41
2023-01-02T07:02:26.126Z,101035.81
2023-01-02T07:07:31.753Z,101033.28
2023-01-02T07:12:35.417Z,101043.59
2023-01-02T07:17:38.239Z,101034.97
2023-01-02T07:22:42.732Z,101034.25
2023-01-02T07:27:45.627Z,101044.59
2023-01-02T07:32:48.505Z,101082.00
2023-01-02T07:37:53.048Z,101074.16
2023-01-02T07:42:55.907Z,101090.63
2023-01-02T07:47:59.114Z,101096.72
2023-01-02T07:53:03.625Z,101106.25
2023-01-02T07:58:06.468Z,101098.53
2023-01-02T08:03:09.299Z,101079.44
2023-01-02T08:08:13.822Z,101045.69
2023-01-02T08:13:16.739Z,101041.44
2023-01-02T08:18:19.584Z,101034.50
2023-01-02T08:23:24.096Z,101031.13
2023-01-02T08:28:27.148Z,101048.47
2023-01-02T08:33:30.034Z,101057.91
2023-01-02T08:38:34.558Z,101050.88
2023-01-02T08:43:37.425Z,101056.13
2023-01-02T08:48:40.309Z,101029.34
2023-01-02T08:53:44.821Z,101012.91
2023-01-02T08:58:52.770Z,101030.22
2023-01-02T09:03:56.346Z,101037.09
2023-01-02T09:09:03.241Z,101031.91
2023-01-02T09:14:10.159Z,101043.22
2023-01-02T09:19:13.078Z,101035.44
2023-01-02T09:24:17.626Z,101023.31
2023-01-02T09:29:20.849Z,100993.91
2023-01-02T09:34:23.677Z,100972.34
2023-01-02T09:39:32.396Z,100981.03
2023-01-02T09:44:37.677Z,100963.72
2023-01-02T09:49:43.021Z,100972.34
2023-01-02T09:54:47.594Z,100979.22
2023-01-02T09:59:53.534Z,100987.81
2023-01-02T10:05:08.164Z,100970.50
2023-01-02T10:10:18.238Z,100957.59
2023-01-02T10:15:24.698Z,100985.28
2023-01-02T10:20:29.566Z,100981.81
2023-01-02T10:25:34.779Z,100997.41
2023-01-02T10:30:39.331Z,101001.72
2023-01-02T10:35:43.896Z,101007.75
2023-01-02T10:40:49.546Z,101029.50
2023-01-02T10:45:52.568Z,101053.69
2023-01-02T10:50:57.315Z,101040.56
2023-01-02T10:56:04.271Z,101036.31
2023-01-02T11:01:08.485Z,101025.97
2023-01-02T11:06:28.279Z,101006.94
2023-01-02T11:11:33.987Z,101007.84
2023-01-02T11:16:38.959Z,100996.59
2023-01-02T11:21:42.041Z,101015.69
2023-01-02T11:26:46.960Z,101021.75
2023-01-02T11:31:57.233Z,101007.03
2023-01-02T11:37:05.540Z,100992.38
2023-01-02T11:42:19.730Z,100983.72
2023-01-02T11:47:27.610Z,100977.63
2023-01-02T11:52:36.548Z,100978.50
2023-01-02T11:57:44.046Z,100999.25
2023-01-02T12:02:47.876Z,101013.97
2023-01-02T12:07:51.354Z,101007.94
2023-01-02T12:13:05.141Z,100994.13
2023-01-02T12:18:13.224Z,100999.25
2023-01-02T12:23:33.548Z,100977.66
2023-01-02T12:28:47.807Z,100940.56
2023-01-02T12:33:55.698Z,100955.31
2023-01-02T12:39:09.809Z,100939.72
2023-01-02T12:44:22.050Z,100937.97
2023-01-02T12:49:34.251Z,100942.31
2023-01-02T12:54:43.579Z,100931.88
2023-01-02T12:59:58.437Z,100923.19
2023-01-02T13:05:06.373Z,100906.72
2023-01-02T13:10:15.780Z,100901.53
2023-01-02T13:15:22.782Z,100866.00
2023-01-02T13:20:29.418Z,100867.75
2023-01-02T13:25:33.118Z,100882.50
2023-01-02T13:30:43.795Z,100898.09
2023-01-02T13:35:46.854Z,100900.81
2023-01-02T13:40:55.044Z,100912.84
2023-01-02T13:46:00.530Z,100904.28
2023-01-02T13:51:04.298Z,100886.09
2023-01-02T13:56:11.221Z,100904.28
2023-01-02T14:01:43.654Z,100911.19
2023-01-02T14:06:53.604Z,100976.91
2023-01-02T14:11:59.704Z,100995.91
2023-01-02T14:17:05.813Z,100985.47
2023-01-02T14:22:14.092Z,100982.91
2023-01-02T14:27:23.500Z,100977.72
2023-01-02T14:32:35.743Z,100970.78
2023-01-02T14:37:41.937Z,100955.25
2023-01-02T14:42:45.427Z,100980.38
2023-01-02T14:47:50.491Z,100961.34
2023-01-02T14:52:59.789Z,100959.59
2023-01-02T14:58:03.102Z,100918.06
2023-01-02T15:03:15.154Z,100934.44
2023-01-02T15:08:28.834Z,100948.31
2023-01-02T15:13:34.289Z,100998.50
2023-01-02T15:18:58.110Z,101016.63
2023-01-02T15:24:02.680Z,101034.78
2023-01-02T15:29:06.407Z,100974.22
2023-01-02T15:34:10.857Z,100969.09
2023-01-02T15:39:17.570Z,100980.34
2023-01-02T15:44:22.267Z,101000.19
2023-01-02T15:49:25.608Z,101020.06
2023-01-02T15:54:33.608Z,101022.66
2023-01-02T15:59:36.604Z,101045.13
2023-01-02T16:04:39.499Z,101039.03
2023-01-02T16:09:50.404Z,101044.19
2023-01-02T16:14:54.365Z,101027.75
2023-01-02T16:19:59.347Z,101000.06
2023-01-02T16:25:05.535Z,100984.50
2023-01-02T16:30:16.414Z,100981.09
2023-01-02T16:35:23.018Z,100982.75
2023-01-02T16:41:01.071Z,100979.16
2023-01-02T16:46:09.835Z,100950.56
2023-01-02T16:51:14.020Z,100942.78
2023-01-02T16:56:17.717Z,100975.59
2023-01-02T17:01:23.565Z,100991.56
2023-01-02T17:06:26.558Z,100979.38
2023-01-02T17:11:29.458Z,100920.91
2023-01-02T17:16:34.072Z,100910.31
2023-01-02T17:21:36.942Z,100862.78
2023-01-02T17:26:40.607Z,100865.28
2023-01-02T17:31:45.161Z,100859.16
2023-01-02T17:36:48.062Z,100853.72
2023-01-02T17:41:50.979Z,100850.81
2023-01-02T17:47:30.514Z,100890.50
2023-01-02T17:52:18.420Z,100917.31
2023-01-02T17:57:21.351Z,100902.53
2023-01-02T18:02:25.933Z,100883.31
2023-01-02T18:07:28.930Z,100878.13
2023-01-02T18:12:31.803Z,100916.41
2023-01-02T18:17:36.294Z,100930.09
2023-01-02T18:22:44.008Z,100944.56
2023-01-02T18:27:51.449Z,100971.22
2023-01-02T18:32:58.449Z,100973.59
2023-01-02T18:38:03.422Z,100969.88
2023-01-02T18:43:14.670Z,100967.28
2023-01-02T18:48:19.986Z,100952.56
2023-01-02T18:53:23.512Z,100944.88
2023-01-02T18:58:35.970Z,100905.50
2023-01-02T19:03:40.801Z,100909.28
2023-01-02T19:08:43.696Z,100902.44
2023-01-02T19:13:46.544Z,100881.28
2023-01-02T19:18:53.144Z,100869.97
2023-01-02T19:23:57.858Z,100857.25
2023-01-02T19:29:01.595Z,100872.91
2023-01-02T19:34:18.026Z,100839.16
2023-01-02T19:39:24.479Z,100813.41
2023-01-02T19:44:27.365Z,100814.19
2023-01-02T19:49:31.875Z,100800.88
2023-01-02T19:54:34.805Z,100751.88
2023-01-02T19:59:43.495Z,100765.16
2023-01-02T20:04:48.814Z,100768.72
2023-01-02T20:09:51.851Z,100724.25
2023-01-02T20:14:54.714Z,100735.66
2023-01-02T20:19:59.296Z,100718.25
2023-01-02T20:25:02.235Z,100705.91
2023-01-02T20:30:05.476Z,100701.72
2023-01-02T20:35:10.308Z,100715.25
2023-01-02T20:40:13.393Z,100700.22
2023-01-02T20:45:16.323Z,100709.81
2023-01-02T20:50:20.999Z,100691.53
2023-01-02T20:55:23.927Z,100680.06
2023-01-02T21:00:26.786Z,100709.31
2023-01-02T21:05:31.313Z,100704.72
2023-01-02T21:10:34.339Z,100707.06
2023-01-02T21:15:37.818Z,100701.69
2023-01-02T21:20:46.195Z,100710.22
2023-01-02T21:25:50.045Z,100694.47
2023-01-02T21:30:53.032Z,100693.59
2023-01-02T21:35:58.206Z,100678.28
2023-01-02T21:41:01.284Z,100660.31
2023-01-02T21:46:04.197Z,100651.91
2023-01-02T21:51:08.812Z,100661.69
2023-01-02T21:56:11.690Z,100651.00
2023-01-02T22:01:14.660Z,100652.84
2023-01-02T22:06:19.256Z,100644.44
2023-01-02T22:11:22.122Z,100655.13
2023-01-02T22:16:25.164Z,100652.81
2023-01-02T22:21:29.723Z,100636.50
2023-01-02T22:26:32.840Z,100655.34
2023-01-02T22:31:35.783Z,100665.09
2023-01-02T22:36:40.413Z,100671.09
2023-01-02T22:47:02.527Z,100677.06
2023-01-02T22:52:07.697Z,100669.38
2023-01-02T22:57:11.537Z,100639.75
2023-01-02T23:02:15.087Z,100659.81
2023-01-02T23:07:24.306Z,100677.38
2023-01-02T23:12:27.538Z,100681.78
2023-01-02T23:17:30.611Z,100666.38
2023-01-02T23:22:35.129Z,100667.09
2023-01-02T23:27:38.015Z,100653.22
2023-01-02T23:32:40.908Z,100637.03
2023-01-02T23:37:45.430Z,100632.09
2023-01-02T23:42:48.332Z,100627.81
2023-01-02T23:47:51.240Z,100627.81
2023-01-02T23:52:55.777Z,100627.72
2023-01-02T23:57:58.645Z,100610.69
